createdAt,value
2018-01-15T00:00:40.218Z,24.48
2018-01-15T00:03:07.936Z,27.13
2018-01-15T00:05:35.498Z,27.52
2018-01-15T00:08:03.110Z,23.35
2018-01-15T00:10:30.658Z,29.90
2018-01-15T00:12:58.213Z,33.53
2018-01-15T00:15:25.796Z,25.55
2018-01-15T00:17:53.445Z,23.42
2018-01-15T00:20:21.087Z,23.52
2018-01-15T00:22:48.739Z,26.20
2018-01-15T00:25:16.286Z,23.45
2018-01-15T00:27:43.907Z,23.45
2018-01-15T00:30:11.466Z,21.12
2018-01-15T00:32:39.150Z,30.17
2018-01-15T00:35:06.967Z,23.50
2018-01-15T00:37:34.527Z,22.48
2018-01-15T00:40:02.094Z,32.08
2018-01-15T00:42:29.641Z,29.73
2018-01-15T00:44:57.437Z,27.62
2018-01-15T00:47:25.023Z,28.95
2018-01-15T00:49:52.622Z,27.50
2018-01-15T00:52:20.166Z,27.65
2018-01-15T00:54:47.766Z,26.50
2018-01-15T00:57:15.430Z,28.15
2018-01-15T00:59:42.986Z,26.48
2018-01-15T01:02:10.676Z,30.77
2018-01-15T01:04:38.222Z,31.08
2018-01-15T01:07:05.998Z,34.53
2018-01-15T01:09:33.723Z,38.17
2018-01-15T01:12:01.277Z,29.10
2018-01-15T01:14:28.822Z,30.73
2018-01-15T01:16:56.390Z,27.23
2018-01-15T01:19:23.958Z,25.08
2018-01-15T01:21:51.805Z,23.23
2018-01-15T01:24:19.349Z,20.80
2018-01-15T01:26:46.902Z,22.65
2018-01-15T01:29:14.454Z,22.70
2018-01-15T01:31:42.006Z,23.12
2018-01-15T01:34:09.598Z,23.60
2018-01-15T01:36:37.202Z,21.62
2018-01-15T01:39:04.929Z,25.52
2018-01-15T01:41:32.748Z,22.08
2018-01-15T01:44:00.357Z,22.80
2018-01-15T01:46:27.955Z,21.48
2018-01-15T01:48:59.716Z,23.42
2018-01-15T01:51:27.268Z,20.98
2018-01-15T01:53:54.837Z,25.73
2018-01-15T01:56:22.382Z,24.70
2018-01-15T01:58:49.983Z,24.50
2018-01-15T02:01:17.710Z,24.48
2018-01-15T02:03:45.258Z,23.75
2018-01-15T02:06:12.822Z,24.40
2018-01-15T02:08:40.372Z,23.55
2018-01-15T02:11:08.082Z,22.73
2018-01-15T02:13:35.634Z,30.35
2018-01-15T02:16:03.178Z,24.02
2018-01-15T02:18:30.837Z,25.67
2018-01-15T02:20:58.388Z,26.75
2018-01-15T02:23:26.168Z,26.75
2018-01-15T02:25:53.748Z,30.30
2018-01-15T02:28:21.309Z,25.48
2018-01-15T02:30:48.890Z,24.50
2018-01-15T02:33:16.461Z,27.42
2018-01-15T02:35:44.264Z,25.60
2018-01-15T02:38:11.975Z,24.63
2018-01-15T02:40:39.710Z,23.48
2018-01-15T02:43:07.279Z,23.62
2018-01-15T02:45:34.866Z,25.30
2018-01-15T02:48:02.473Z,23.70
2018-01-15T02:50:30.071Z,23.15
2018-01-15T02:52:57.624Z,24.92
2018-01-15T02:55:25.178Z,23.12
2018-01-15T02:57:52.820Z,25.85
2018-01-15T03:00:20.410Z,22.37
2018-01-15T03:02:47.966Z,25.15
2018-01-15T03:05:15.517Z,21.85
2018-01-15T03:07:43.078Z,24.70
2018-01-15T03:10:10.631Z,29.45
2018-01-15T03:12:38.246Z,23.70
2018-01-15T03:15:05.789Z,26.98
2018-01-15T03:17:33.343Z,22.17
2018-01-15T03:20:00.897Z,25.77
2018-01-15T03:22:28.691Z,23.58
2018-01-15T03:24:56.313Z,24.95
2018-01-15T03:27:23.941Z,21.58
2018-01-15T03:29:51.483Z,23.55
2018-01-15T03:32:19.171Z,24.63
2018-01-15T03:34:46.722Z,22.83
2018-01-15T03:37:14.352Z,23.60
2018-01-15T03:39:41.898Z,23.25
2018-01-15T03:42:09.444Z,24.80
2018-01-15T03:44:37.167Z,29.90
2018-01-15T03:47:04.701Z,35.55
2018-01-15T03:49:32.590Z,27.62
2018-01-15T03:52:00.142Z,26.65
2018-01-15T03:54:27.685Z,28.25
2018-01-15T03:56:55.238Z,28.23
2018-01-15T03:59:22.823Z,33.55
2018-01-15T04:01:50.413Z,38.20
2018-01-15T04:04:17.974Z,31.42
2018-01-15T04:06:45.812Z,29.92
2018-01-15T04:09:13.386Z,27.20
2018-01-15T04:11:40.991Z,27.62
2018-01-15T04:14:08.591Z,31.62
2018-01-15T04:16:36.133Z,35.70
2018-01-15T04:19:03.674Z,57.28
2018-01-15T04:21:31.223Z,42.85
2018-01-15T04:23:58.765Z,34.10
2018-01-15T04:26:26.362Z,37.53
2018-01-15T04:28:53.906Z,54.95
2018-01-15T04:31:21.507Z,42.67
2018-01-15T04:33:49.067Z,52.60
2018-01-15T04:36:16.659Z,46.55
2018-01-15T04:38:44.258Z,26.90
2018-01-15T04:41:11.798Z,30.08
2018-01-15T04:43:39.338Z,27.85
2018-01-15T04:46:06.993Z,29.83
2018-01-15T04:48:34.531Z,32.88
2018-01-15T04:51:02.129Z,43.33
2018-01-15T04:53:29.730Z,43.90
2018-01-15T04:55:57.314Z,35.45
2018-01-15T04:58:24.852Z,30.02
2018-01-15T05:00:52.393Z,29.50
2018-01-15T05:03:20.046Z,35.80
2018-01-15T05:05:47.590Z,32.42
2018-01-15T05:08:15.253Z,36.35
2018-01-15T05:10:42.974Z,33.42
2018-01-15T05:13:10.518Z,31.45
2018-01-15T05:15:38.200Z,30.50
2018-01-15T05:18:06.027Z,34.78
2018-01-15T05:20:33.636Z,33.22
2018-01-15T05:23:02.286Z,34.08
2018-01-15T05:25:29.829Z,37.47
2018-01-15T05:27:57.426Z,31.48
2018-01-15T05:30:25.121Z,36.20
2018-01-15T05:32:52.836Z,39.15
2018-01-15T05:35:20.454Z,59.75
2018-01-15T05:37:48.001Z,36.40
2018-01-15T05:40:15.589Z,38.10
2018-01-15T05:42:43.315Z,37.22
2018-01-15T05:45:10.977Z,34.25
2018-01-15T05:47:38.535Z,31.17
2018-01-15T05:50:06.258Z,37.47
2018-01-15T05:52:33.986Z,34.65
2018-01-15T05:55:01.698Z,34.22
2018-01-15T05:57:29.254Z,43.35
2018-01-15T05:59:57.034Z,46.05
2018-01-15T06:02:24.651Z,48.17
2018-01-15T06:04:52.282Z,44.83
2018-01-15T06:07:19.826Z,37.05
2018-01-15T06:09:47.374Z,32.83
2018-01-15T06:12:14.937Z,47.72
2018-01-15T06:14:42.478Z,31.70
2018-01-15T06:17:10.213Z,43.20
2018-01-15T06:19:37.790Z,51.90
2018-01-15T06:22:05.339Z,58.78
2018-01-15T06:24:33.015Z,47.65
2018-01-15T06:27:00.622Z,51.97
2018-01-15T06:29:28.238Z,51.83
2018-01-15T06:31:55.785Z,48.28
2018-01-15T06:34:23.342Z,39.75
2018-01-15T06:36:50.906Z,43.35
2018-01-15T06:39:18.619Z,41.22
2018-01-15T06:41:46.206Z,41.37
2018-01-15T06:44:13.957Z,61.25
2018-01-15T06:46:41.773Z,62.55
2018-01-15T06:49:09.594Z,33.97
2018-01-15T06:51:37.149Z,33.00
2018-01-15T06:54:04.839Z,28.77
2018-01-15T06:56:32.386Z,27.02
2018-01-15T06:58:59.952Z,24.10
2018-01-15T07:01:27.534Z,29.10
2018-01-15T07:03:55.091Z,26.08
2018-01-15T07:06:22.686Z,28.77
2018-01-15T07:08:50.434Z,25.75
2018-01-15T07:11:17.984Z,32.78
2018-01-15T07:13:45.671Z,29.15
2018-01-15T07:16:13.391Z,26.17
2018-01-15T07:18:41.890Z,25.60
2018-01-15T07:21:09.434Z,30.92
2018-01-15T07:23:39.367Z,26.12
2018-01-15T07:26:08.270Z,28.45
2018-01-15T07:28:36.122Z,27.55
2018-01-15T07:31:04.119Z,25.67
2018-01-15T07:33:33.192Z,43.70
2018-01-15T07:36:00.807Z,38.80
2018-01-15T07:38:28.362Z,39.60
2018-01-15T07:40:56.165Z,27.70
2018-01-15T07:43:23.751Z,28.52
2018-01-15T07:45:51.298Z,24.98
2018-01-15T07:48:18.863Z,25.58
2018-01-15T07:50:46.954Z,31.27
2018-01-15T07:53:14.506Z,20.60
2018-01-15T07:55:42.500Z,22.45
2018-01-15T07:58:10.042Z,21.65
2018-01-15T08:00:37.596Z,55.50
2018-01-15T08:03:05.158Z,103.20
2018-01-15T08:05:32.872Z,28.77
2018-01-15T08:08:00.494Z,33.88
2018-01-15T08:10:28.041Z,24.90
2018-01-15T08:12:55.586Z,24.00
2018-01-15T08:15:23.150Z,26.30
2018-01-15T08:17:50.702Z,24.50
2018-01-15T08:20:18.314Z,25.73
2018-01-15T08:22:45.855Z,29.02
2018-01-15T08:25:13.474Z,21.95
2018-01-15T08:27:41.050Z,22.13
2018-01-15T08:30:08.643Z,29.48
2018-01-15T08:32:36.266Z,20.27
2018-01-15T08:35:03.885Z,39.38
2018-01-15T08:37:31.459Z,45.75
2018-01-15T08:39:59.220Z,25.40
2018-01-15T08:42:26.879Z,22.67
2018-01-15T08:44:54.619Z,24.33
2018-01-15T08:47:22.171Z,18.10
2018-01-15T08:49:49.802Z,25.85
2018-01-15T08:52:17.386Z,22.40
2018-01-15T08:54:44.969Z,38.33
2018-01-15T08:57:12.703Z,113.32
2018-01-15T08:59:40.246Z,44.13
2018-01-15T09:02:07.819Z,34.47
2018-01-15T09:04:35.386Z,23.48
2018-01-15T09:07:03.167Z,23.38
2018-01-15T09:09:30.779Z,23.00
2018-01-15T09:11:58.349Z,23.10
2018-01-15T09:14:25.958Z,25.62
2018-01-15T09:16:53.518Z,48.05
2018-01-15T09:19:21.067Z,78.90
2018-01-15T09:21:48.874Z,45.92
2018-01-15T09:24:16.450Z,141.68
2018-01-15T09:26:44.002Z,199.23
2018-01-15T09:29:11.570Z,34.45
2018-01-15T09:31:39.118Z,27.95
2018-01-15T09:34:06.729Z,29.80
2018-01-15T09:36:34.373Z,21.85
2018-01-15T09:39:01.988Z,17.98
2018-01-15T09:41:29.721Z,25.00
2018-01-15T09:43:57.439Z,25.50
2018-01-15T09:46:25.070Z,38.58
2018-01-15T09:48:52.614Z,37.40
2018-01-15T09:51:20.221Z,40.88
2018-01-15T09:53:47.912Z,25.08
2018-01-15T09:56:15.458Z,38.08
2018-01-15T09:58:43.053Z,31.05
2018-01-15T10:01:10.614Z,24.30
2018-01-15T10:03:38.165Z,21.48
2018-01-15T10:06:05.722Z,20.77
2018-01-15T10:08:33.282Z,20.12
2018-01-15T10:11:01.061Z,35.00
2018-01-15T10:13:28.747Z,25.73
2018-01-15T10:15:56.303Z,29.48
2018-01-15T10:18:23.858Z,30.80
2018-01-15T10:20:51.402Z,87.60
2018-01-15T10:23:19.005Z,104.20
2018-01-15T10:25:46.638Z,31.48
2018-01-15T10:28:14.202Z,89.97
2018-01-15T10:30:41.762Z,77.50
2018-01-15T10:33:09.489Z,113.68
2018-01-15T10:35:37.211Z,26.17
2018-01-15T10:38:04.767Z,20.15
2018-01-15T10:40:32.354Z,18.65
2018-01-15T10:43:00.131Z,19.00
2018-01-15T10:45:27.878Z,28.42
2018-01-15T10:47:55.487Z,18.70
2018-01-15T10:50:23.030Z,23.52
2018-01-15T10:52:50.574Z,26.75
2018-01-15T10:55:18.122Z,43.85
2018-01-15T10:57:45.675Z,36.58
2018-01-15T11:00:13.299Z,41.65
2018-01-15T11:02:40.838Z,34.28
2018-01-15T11:05:08.394Z,20.67
2018-01-15T11:07:35.966Z,30.23
2018-01-15T11:10:03.582Z,63.08
2018-01-15T11:12:31.687Z,34.25
2018-01-15T11:14:59.494Z,58.65
2018-01-15T11:17:27.038Z,73.80
2018-01-15T11:19:54.657Z,26.27
2018-01-15T11:22:22.202Z,26.85
2018-01-15T11:24:49.879Z,26.10
2018-01-15T11:27:17.426Z,19.75
2018-01-15T11:29:45.099Z,77.40
2018-01-15T11:32:12.918Z,50.55
2018-01-15T11:34:40.640Z,70.97
2018-01-15T11:37:08.362Z,48.75
2018-01-15T11:39:35.930Z,27.45
2018-01-15T11:42:03.490Z,54.60
2018-01-15T11:44:31.052Z,29.48
2018-01-15T11:46:58.685Z,89.95
2018-01-15T11:49:26.445Z,31.83
2018-01-15T11:51:54.024Z,24.20
2018-01-15T11:54:21.683Z,25.12
2018-01-15T11:56:49.245Z,28.83
2018-01-15T11:59:16.850Z,56.55
2018-01-15T12:01:44.510Z,29.63
2018-01-15T12:04:12.061Z,18.37
2018-01-15T12:06:39.770Z,21.67
2018-01-15T12:09:07.358Z,47.05
2018-01-15T12:11:35.104Z,53.38
2018-01-15T12:14:02.697Z,27.98
2018-01-15T12:16:30.771Z,52.53
2018-01-15T12:18:58.483Z,80.05
2018-01-15T12:21:26.102Z,36.20
2018-01-15T12:23:53.646Z,21.12
2018-01-15T12:26:21.248Z,50.70
2018-01-15T12:28:48.816Z,82.65
2018-01-15T12:31:16.649Z,55.92
2018-01-15T12:33:44.202Z,25.42
2018-01-15T12:36:11.850Z,140.68
2018-01-15T12:38:40.418Z,62.10
2018-01-15T12:41:08.236Z,53.22
2018-01-15T12:43:35.948Z,66.80
2018-01-15T12:46:03.558Z,36.30
2018-01-15T12:48:31.115Z,96.40
2018-01-15T12:50:58.735Z,35.42
2018-01-15T12:53:26.281Z,26.85
2018-01-15T12:55:53.830Z,25.95
2018-01-15T12:58:21.417Z,32.85
2018-01-15T13:00:49.070Z,22.87
2018-01-15T13:03:16.710Z,20.75
2018-01-15T13:05:52.123Z,20.10
2018-01-15T13:11:24.725Z,22.75
2018-01-15T13:13:52.336Z,29.52
2018-01-15T13:16:19.906Z,37.55
2018-01-15T13:18:47.650Z,39.72
2018-01-15T13:21:15.202Z,20.00
2018-01-15T13:23:42.778Z,30.23
2018-01-15T13:26:10.410Z,27.33
2018-01-15T13:28:37.970Z,25.83
2018-01-15T13:31:05.529Z,41.00
2018-01-15T13:33:33.225Z,25.27
2018-01-15T13:36:00.786Z,32.30
2018-01-15T13:38:28.390Z,35.45
2018-01-15T13:40:55.950Z,22.40
2018-01-15T13:43:23.563Z,30.55
2018-01-15T13:45:51.150Z,24.12
2018-01-15T13:48:18.706Z,29.23
2018-01-15T13:50:46.291Z,63.75
2018-01-15T13:53:14.013Z,89.80
2018-01-15T13:55:41.627Z,30.95
2018-01-15T13:58:09.206Z,31.87
2018-01-15T14:00:36.952Z,29.25
2018-01-15T14:03:04.582Z,40.58
2018-01-15T14:05:32.180Z,30.90
2018-01-15T14:07:59.838Z,31.37
2018-01-15T14:10:27.390Z,30.02
2018-01-15T14:12:54.939Z,33.63
2018-01-15T14:15:22.534Z,25.15
2018-01-15T14:17:50.215Z,78.15
2018-01-15T14:20:17.809Z,41.05
2018-01-15T14:22:45.478Z,44.33
2018-01-15T14:25:13.017Z,59.67
2018-01-15T14:27:40.612Z,72.45
2018-01-15T14:30:08.365Z,28.83
2018-01-15T14:32:35.973Z,57.08
2018-01-15T14:35:03.711Z,50.83
2018-01-15T14:37:31.378Z,54.10
2018-01-15T14:39:58.999Z,39.72
2018-01-15T14:42:26.743Z,31.45
2018-01-15T14:44:54.294Z,69.82
2018-01-15T14:47:21.853Z,132.43
2018-01-15T14:49:49.403Z,213.80
2018-01-15T14:52:17.101Z,55.85
2018-01-15T14:54:44.646Z,33.45
2018-01-15T14:57:12.199Z,34.05
2018-01-15T14:59:39.753Z,33.05
2018-01-15T15:02:07.295Z,32.10
2018-01-15T15:04:34.936Z,46.20
2018-01-15T15:07:02.494Z,45.83
2018-01-15T15:09:30.049Z,43.58
2018-01-15T15:11:57.643Z,77.25
2018-01-15T15:14:25.202Z,56.47
2018-01-15T15:16:52.909Z,73.20
2018-01-15T15:19:20.374Z,56.13
2018-01-15T15:21:48.103Z,37.70
2018-01-15T15:24:15.922Z,60.20
2018-01-15T15:26:43.959Z,51.60
2018-01-15T15:29:11.688Z,62.92
2018-01-15T15:31:39.322Z,156.25
2018-01-15T15:34:06.869Z,104.20
2018-01-15T15:36:34.445Z,96.90
2018-01-15T15:39:02.041Z,93.32
2018-01-15T15:41:29.770Z,68.22
2018-01-15T15:43:57.326Z,173.05
2018-01-15T15:46:25.017Z,110.55
2018-01-15T15:48:52.594Z,164.48
2018-01-15T15:51:20.175Z,97.97
2018-01-15T15:53:47.958Z,103.40
2018-01-15T15:56:15.683Z,188.02
2018-01-15T15:58:43.247Z,168.45
2018-01-15T16:01:10.822Z,131.70
2018-01-15T16:03:38.628Z,105.85
2018-01-15T16:06:06.254Z,197.77
2018-01-15T16:08:33.975Z,104.32
2018-01-15T16:11:01.563Z,206.13
2018-01-15T16:13:29.128Z,137.98
2018-01-15T16:15:56.681Z,78.05
2018-01-15T16:18:24.530Z,82.47
2018-01-15T16:20:52.356Z,83.32
2018-01-15T16:23:19.958Z,87.30
2018-01-15T16:25:47.493Z,69.25
2018-01-15T16:28:15.042Z,72.32
2018-01-15T16:30:42.867Z,89.22
2018-01-15T16:33:10.414Z,60.10
2018-01-15T16:35:37.954Z,59.70
2018-01-15T16:38:05.528Z,61.55
2018-01-15T16:40:33.073Z,65.50
2018-01-15T16:43:00.690Z,70.03
2018-01-15T16:45:28.244Z,66.53
2018-01-15T16:47:55.786Z,119.10
2018-01-15T16:50:26.286Z,97.85
2018-01-15T16:52:53.869Z,69.25
2018-01-15T16:55:21.466Z,54.78
2018-01-15T16:57:49.041Z,47.83
2018-01-15T17:00:16.581Z,54.85
2018-01-15T17:02:44.126Z,55.55
2018-01-15T17:05:11.670Z,60.85
2018-01-15T17:07:39.302Z,51.22
2018-01-15T17:10:06.854Z,50.45
2018-01-15T17:12:34.410Z,56.88
2018-01-15T17:15:01.971Z,42.88
2018-01-15T17:17:29.718Z,37.58
2018-01-15T17:19:57.309Z,53.05
2018-01-15T17:22:24.858Z,55.70
2018-01-15T17:24:52.433Z,41.08
2018-01-15T17:27:19.994Z,40.88
2018-01-15T17:29:47.704Z,37.10
2018-01-15T17:32:15.332Z,48.42
2018-01-15T17:34:42.874Z,41.63
2018-01-15T17:37:10.655Z,42.28
2018-01-15T17:39:38.242Z,41.90
2018-01-15T17:42:05.821Z,35.38
2018-01-15T17:44:33.425Z,40.33
2018-01-15T17:47:01.018Z,46.28
2018-01-15T17:49:28.574Z,115.95
2018-01-15T17:51:56.266Z,120.87
2018-01-15T17:54:23.872Z,51.03
2018-01-15T17:56:51.462Z,67.30
2018-01-15T17:59:19.010Z,116.82
2018-01-15T18:01:46.570Z,240.90
2018-01-15T18:04:14.333Z,64.93
2018-01-15T18:06:41.906Z,75.05
2018-01-15T18:09:09.634Z,53.67
2018-01-15T18:11:37.218Z,43.38
2018-01-15T18:14:05.060Z,45.25
2018-01-15T18:16:32.688Z,42.50
2018-01-15T18:19:00.284Z,53.15
2018-01-15T18:21:27.873Z,61.47
2018-01-15T18:23:55.429Z,152.52
2018-01-15T18:26:23.159Z,71.72
2018-01-15T18:28:50.714Z,69.50
2018-01-15T18:31:18.350Z,37.85
2018-01-15T18:33:45.941Z,37.17
2018-01-15T18:36:13.601Z,65.22
2018-01-15T18:38:41.244Z,60.45
2018-01-15T18:41:08.804Z,55.20
2018-01-15T18:43:36.534Z,44.05
2018-01-15T18:46:04.258Z,49.95
2018-01-15T18:48:31.790Z,50.20
2018-01-15T18:50:59.442Z,39.20
2018-01-15T18:53:26.998Z,42.05
2018-01-15T18:55:54.550Z,50.30
2018-01-15T18:58:22.138Z,56.37
2018-01-15T19:00:49.691Z,70.62
2018-01-15T19:03:17.326Z,78.45
2018-01-15T19:05:44.874Z,91.97
2018-01-15T19:08:12.422Z,67.87
2018-01-15T19:10:40.188Z,58.90
2018-01-15T19:13:07.996Z,67.18
2018-01-15T19:15:35.602Z,103.43
2018-01-15T19:18:03.163Z,45.70
2018-01-15T19:20:30.711Z,45.95
2018-01-15T19:22:58.541Z,53.08
2018-01-15T19:25:26.090Z,86.12
2018-01-15T19:27:53.675Z,69.35
2018-01-15T19:30:21.277Z,65.85
2018-01-15T19:32:48.920Z,79.57
2018-01-15T19:38:17.938Z,149.57
2018-01-15T19:40:45.542Z,225.43
2018-01-15T19:46:24.521Z,96.82
2018-01-15T19:48:57.590Z,98.78
2018-01-15T19:51:30.878Z,69.82
2018-01-15T19:54:04.215Z,50.88
2018-01-15T19:56:37.411Z,62.05
2018-01-15T19:59:10.557Z,72.30
2018-01-15T20:01:43.538Z,74.22
2018-01-15T20:04:16.719Z,83.82
2018-01-15T20:09:57.170Z,58.78
2018-01-15T20:12:24.763Z,45.75
2018-01-15T20:14:52.491Z,41.55
2018-01-15T20:17:20.309Z,34.42
2018-01-15T20:19:47.866Z,37.75
2018-01-15T20:22:15.409Z,37.72
2018-01-15T20:24:43.035Z,49.13
2018-01-15T20:27:10.614Z,40.15
2018-01-15T20:29:38.303Z,44.95
2018-01-15T20:32:06.018Z,51.53
2018-01-15T20:34:33.733Z,61.75
2018-01-15T20:37:01.343Z,57.20
2018-01-15T20:39:28.886Z,54.72
2018-01-15T20:41:56.480Z,59.58
2018-01-15T20:44:24.022Z,64.70
2018-01-15T20:46:51.570Z,67.20
2018-01-15T20:49:19.114Z,62.08
2018-01-15T20:51:46.766Z,65.12
2018-01-15T20:54:14.393Z,62.40
2018-01-15T20:56:41.936Z,67.50
2018-01-15T20:59:09.496Z,67.18
2018-01-15T21:01:37.055Z,55.08
2018-01-15T21:04:04.748Z,45.55
2018-01-15T21:06:32.366Z,51.88
2018-01-15T21:08:59.905Z,46.40
2018-01-15T21:11:27.471Z,52.15
2018-01-15T21:13:55.022Z,45.53
2018-01-15T21:16:22.577Z,48.87
2018-01-15T21:18:50.162Z,52.13
2018-01-15T21:21:17.712Z,46.60
2018-01-15T21:23:45.278Z,46.22
2018-01-15T21:26:12.930Z,50.42
2018-01-15T21:28:40.724Z,52.80
2018-01-15T21:31:08.338Z,48.65
2018-01-15T21:33:35.885Z,48.03
2018-01-15T21:36:03.588Z,43.75
2018-01-15T21:38:31.395Z,43.33
2018-01-15T21:40:58.937Z,47.70
2018-01-15T21:43:26.551Z,50.60
2018-01-15T21:45:54.153Z,46.10
2018-01-15T21:48:21.702Z,41.15
2018-01-15T21:50:49.270Z,46.50
2018-01-15T21:53:16.810Z,37.25
2018-01-15T21:55:44.426Z,39.78
2018-01-15T21:58:12.041Z,52.42
2018-01-15T22:00:39.666Z,45.72
2018-01-15T22:03:07.226Z,54.72
2018-01-15T22:05:34.990Z,49.88
2018-01-15T22:08:02.614Z,52.95
2018-01-15T22:10:30.170Z,44.15
2018-01-15T22:12:57.849Z,54.85
2018-01-15T22:15:25.422Z,38.25
2018-01-15T22:17:52.960Z,43.25
2018-01-15T22:20:20.575Z,40.92
2018-01-15T22:22:48.116Z,43.65
2018-01-15T22:25:15.932Z,48.40
2018-01-15T22:27:43.493Z,49.88
2018-01-15T22:30:11.522Z,44.00
2018-01-15T22:32:39.113Z,43.20
2018-01-15T22:35:06.908Z,50.88
2018-01-15T22:37:34.624Z,43.72
2018-01-15T22:40:02.233Z,36.67
2018-01-15T22:42:29.788Z,80.80
2018-01-15T22:44:57.434Z,67.37
2018-01-15T22:47:24.991Z,54.58
2018-01-15T22:49:52.531Z,57.97
2018-01-15T22:52:20.099Z,40.97
2018-01-15T22:54:47.639Z,42.05
2018-01-15T22:57:15.339Z,37.90
2018-01-15T22:59:42.881Z,37.30
2018-01-15T23:02:10.427Z,40.22
2018-01-15T23:04:37.984Z,40.22
2018-01-15T23:07:05.543Z,39.92
2018-01-15T23:09:33.130Z,34.70
2018-01-15T23:12:00.665Z,39.70
2018-01-15T23:14:28.202Z,36.45
2018-01-15T23:16:56.007Z,45.28
2018-01-15T23:19:23.550Z,50.47
2018-01-15T23:21:51.162Z,42.72
2018-01-15T23:24:18.702Z,38.88
2018-01-15T23:26:46.246Z,40.03
2018-01-15T23:29:13.798Z,38.10
2018-01-15T23:31:41.420Z,38.28
2018-01-15T23:34:09.763Z,50.10
2018-01-15T23:36:37.304Z,40.33
2018-01-15T23:39:04.898Z,43.35
2018-01-15T23:41:32.686Z,42.55
2018-01-15T23:44:00.290Z,38.78
2018-01-15T23:46:27.877Z,37.70
2018-01-15T23:48:55.413Z,41.75
2018-01-15T23:51:23.010Z,42.38
2018-01-15T23:53:50.779Z,41.60
2018-01-15T23:56:18.494Z,36.75
2018-01-15T23:58:46.315Z,36.92
